Terminal Aerodrome Forecast
Issued by NWS

Home | Current Version | Previous Version | Text Only | Print | Product List | Glossary On
Versions: 1 2 3 4 5 6 7 8 9 10 11 12 13 14 15 16 17
814
FTUS42 TJSJ 202320
TAFJSJ
TAF
TJSJ 202320Z 2100/2124 06005KT P6SM VCSH SCT025 BKN080
      TEMPO 2100/2102 5SM -RA SCT025 BKN060
     FM211500 07015KT P6SM FEW025 FEW040
     FM212300 10010KT P6SM FEW025 BKN060 BKN120=

USA.gov is the U.S. government's official web portal to all federal, state and local government web resources and services.